PWSweather.com
Personal Weather Stations
Station Observations
DW0826
Near, Fish Camp, CA 93623

NearFish Camp, CA 93623

Lat: 37.454233, Lon: -119.64568

Elevation: 4960

Station Type: Davis VantagePro2

Latest ConditionsUpdated 1:00:07 PM PST Sunday, Jan 19, 2020
Currently Today's Max Today's Min Today's Average
Temperature 55.9°F13.3°C 56.4°F13.6°C 51.7°F10.9°C 54.2°F12.3°C
Dew Point 27.9°F-2.3°C 28.9°F-1.7°C 12.2°F-11.0°C 18.1°F-7.7°C
Winds Calm Calm 4.0 mph -6.4 kmh - - 1.6 mph 2.6 kmh
Wind Gusts 3.0 mph4.8 kmh 8.0 mph12.9 kmh - -
Humidity 34% 39% 18% 24%
Pressure 30.26 in1024.7 mb 30.43 in1030.5 mb 30.26 in1024.7 mb -
Hour Temp Dew Point Humidity Winds Wind Gusts Pressure Precip Precip Rate Daily Precip Total
01:00 PM 55.9°F13.3°C 27.9°F-2.3°C 34% Calm Calm 3.0 mph4.8 kmh 30.26 in1024.7 mb 0.00 in0.0 mm 0.00 in0.0 mm 0.00 in0.0 mm
12:30 PM 54.8°F12.7°C 28.3°F-2.1°C 36% 1.0 mph S1.6 kmh S 2.0 mph3.2 kmh 30.28 in1025.4 mb 0.00 in0.0 mm 0.00 in0.0 mm 0.00 in0.0 mm
12:00 PM 54.7°F12.6°C 26.8°F-2.9°C 34% Calm Calm 4.0 mph6.4 kmh 30.29 in1025.7 mb 0.00 in0.0 mm 0.00 in0.0 mm 0.00 in0.0 mm
11:30 AM 53.3°F11.8°C 28.9°F-1.7°C 39% Calm Calm 4.0 mph6.4 kmh 30.31 in1026.4 mb 0.00 in0.0 mm 0.00 in0.0 mm 0.00 in0.0 mm
11:00 AM 55.5°F13.1°C 21.1°F-6.1°C 26% 1.0 mph NW1.6 kmh NW 1.0 mph1.6 kmh 30.32 in1026.8 mb 0.00 in0.0 mm 0.00 in0.0 mm 0.00 in0.0 mm
10:30 AM 56.1°F13.4°C 19.8°F-6.8°C 24% Calm Calm 3.0 mph4.8 kmh 30.32 in1026.8 mb 0.00 in0.0 mm 0.00 in0.0 mm 0.00 in0.0 mm
10:00 AM 54.9°F12.7°C 17.8°F-7.9°C 23% 2.0 mph NW3.2 kmh NW 4.0 mph6.4 kmh 30.32 in1026.8 mb 0.00 in0.0 mm 0.00 in0.0 mm 0.00 in0.0 mm
09:30 AM 54.6°F12.6°C 17.5°F-8.1°C 23% 1.0 mph NW1.6 kmh NW 2.0 mph3.2 kmh 30.32 in1026.8 mb 0.00 in0.0 mm 0.00 in0.0 mm 0.00 in0.0 mm
09:00 AM 54.6°F12.6°C 19.4°F-7.0°C 25% Calm Calm 5.0 mph8.0 kmh 30.31 in1026.4 mb 0.00 in0.0 mm 0.00 in0.0 mm 0.00 in0.0 mm
08:30 AM 52.0°F11.1°C 19.9°F-6.7°C 28% 1.0 mph NW1.6 kmh NW 3.0 mph4.8 kmh 30.31 in1026.4 mb 0.00 in0.0 mm 0.00 in0.0 mm 0.00 in0.0 mm
08:00 AM 52.4°F11.3°C 17.6°F-8.0°C 25% 1.0 mph NNW1.6 kmh NNW 4.0 mph6.4 kmh 30.31 in1026.4 mb 0.00 in0.0 mm 0.00 in0.0 mm 0.00 in0.0 mm
07:30 AM 53.7°F12.1°C 16.8°F-8.4°C 23% 1.0 mph NW1.6 kmh NW 3.0 mph4.8 kmh 30.31 in1026.4 mb 0.00 in0.0 mm 0.00 in0.0 mm 0.00 in0.0 mm
07:00 AM 54.7°F12.6°C 16.6°F-8.6°C 22% 2.0 mph NW3.2 kmh NW 6.0 mph9.7 kmh 30.31 in1026.4 mb 0.00 in0.0 mm 0.00 in0.0 mm 0.00 in0.0 mm
06:30 AM 54.6°F12.6°C 14.3°F-9.8°C 20% 4.0 mph WNW6.4 kmh WNW 5.0 mph8.0 kmh 30.31 in1026.4 mb 0.00 in0.0 mm 0.00 in0.0 mm 0.00 in0.0 mm
06:00 AM 55.6°F13.1°C 15.1°F-9.4°C 20% 2.0 mph NW3.2 kmh NW 6.0 mph9.7 kmh 30.30 in1026.1 mb 0.00 in0.0 mm 0.00 in0.0 mm 0.00 in0.0 mm
05:30 AM 56.4°F13.6°C 14.6°F-9.7°C 19% 2.0 mph SSW3.2 kmh SSW 6.0 mph9.7 kmh 30.30 in1026.1 mb 0.00 in0.0 mm 0.00 in0.0 mm 0.00 in0.0 mm
05:00 AM 55.5°F13.1°C 13.9°F-10.1°C 19% 2.0 mph WSW3.2 kmh WSW 5.0 mph8.0 kmh 30.32 in1026.8 mb 0.00 in0.0 mm 0.00 in0.0 mm 0.00 in0.0 mm
04:30 AM 54.3°F12.4°C 14.1°F-9.9°C 20% 2.0 mph WSW3.2 kmh WSW 5.0 mph8.0 kmh 30.34 in1027.4 mb 0.00 in0.0 mm 0.00 in0.0 mm 0.00 in0.0 mm
04:00 AM 53.7°F12.1°C 16.8°F-8.4°C 23% 2.0 mph SW3.2 kmh SW 6.0 mph9.7 kmh 30.35 in1027.8 mb 0.00 in0.0 mm 0.00 in0.0 mm 0.00 in0.0 mm
03:30 AM 53.6°F12.0°C 14.6°F-9.7°C 21% 4.0 mph WSW6.4 kmh WSW 5.0 mph8.0 kmh 30.36 in1028.1 mb 0.00 in0.0 mm 0.00 in0.0 mm 0.00 in0.0 mm
03:00 AM 55.5°F13.1°C 15.0°F-9.4°C 20% 3.0 mph SW4.8 kmh SW 6.0 mph9.7 kmh 30.37 in1028.4 mb 0.00 in0.0 mm 0.00 in0.0 mm 0.00 in0.0 mm
02:30 AM 55.0°F12.8°C 12.2°F-11.0°C 18% 3.0 mph SW4.8 kmh SW 8.0 mph12.9 kmh 30.38 in1028.8 mb 0.00 in0.0 mm 0.00 in0.0 mm 0.00 in0.0 mm
02:00 AM 54.7°F12.6°C 13.2°F-10.4°C 19% 4.0 mph SSE6.4 kmh SSE 6.0 mph9.7 kmh 30.39 in1029.1 mb 0.00 in0.0 mm 0.00 in0.0 mm 0.00 in0.0 mm
01:30 AM 52.4°F11.3°C 17.6°F-8.0°C 25% 2.0 mph NW3.2 kmh NW 6.0 mph9.7 kmh 30.40 in1029.5 mb 0.00 in0.0 mm 0.00 in0.0 mm 0.00 in0.0 mm
01:00 AM 52.4°F11.3°C 15.7°F-9.1°C 23% Calm Calm 4.0 mph6.4 kmh 30.41 in1029.8 mb 0.00 in0.0 mm 0.00 in0.0 mm 0.00 in0.0 mm
12:30 AM 51.7°F10.9°C 17.0°F-8.3°C 25% 2.0 mph SW3.2 kmh SW 4.0 mph6.4 kmh 30.42 in1030.1 mb 0.00 in0.0 mm 0.00 in0.0 mm 0.00 in0.0 mm
12:00 AM 51.9°F11.1°C 16.2°F-8.8°C 24% 2.0 mph SW3.2 kmh SW 8.0 mph12.9 kmh 30.43 in1030.5 mb 0.00 in0.0 mm 0.00 in0.0 mm 0.15 in3.8 mm